Time;durP1;ratioP1;P1;durP2;ratioP2;P2;SDS_P1;SDS_P2;PMS_P1;PMS_P2;Temp;Humidity;BMP_temperature;BMP_pressure;BME280_temperature;BME280_humidity;BME280_pressure;Samples;Min_cycle;Max_cycle;Signal;HPM_P1;HPM_P2
2023/07/13 00:01:53;;;;;;;0.20;0.20;;;;;;;20.19;100.00;99263.06;4948144;28;20238;-77
2023/07/13 00:04:24;;;;;;;0.40;0.40;;;;;;;20.14;100.00;99272.19;4949453;28;20245;-77
2023/07/13 00:06:52;;;;;;;0.30;0.30;;;;;;;20.08;100.00;99287.72;4952376;28;20231;-77
2023/07/13 00:09:20;;;;;;;0.50;0.50;;;;;;;20.07;100.00;99323.56;4941827;28;20236;-78
2023/07/13 00:11:52;;;;;;;0.20;0.20;;;;;;;19.99;100.00;99317.69;4951459;28;20307;-77
2023/07/13 00:14:19;;;;;;;0.75;0.52;;;;;;;19.93;100.00;99305.44;4948743;28;20233;-77
2023/07/13 00:16:46;;;;;;;0.20;0.20;;;;;;;19.90;100.00;99299.34;4954332;28;20268;-77
2023/07/13 00:19:14;;;;;;;0.40;0.40;;;;;;;19.81;100.00;99316.75;4949627;28;20241;-77
2023/07/13 00:21:41;;;;;;;0.30;0.30;;;;;;;19.85;100.00;99322.84;4941297;28;20220;-77
2023/07/13 00:24:15;;;;;;;0.17;0.17;;;;;;;19.89;100.00;99332.47;4957514;28;20307;-77
2023/07/13 00:26:45;;;;;;;0.52;0.52;;;;;;;19.90;100.00;99332.41;4954252;28;20231;-76
2023/07/13 00:29:13;;;;;;;0.57;0.47;;;;;;;19.68;100.00;99339.69;4943771;28;20251;-76
2023/07/13 00:31:40;;;;;;;0.20;0.20;;;;;;;19.25;100.00;99367.47;4961055;28;20261;-77
2023/07/13 00:34:07;;;;;;;0.38;0.38;;;;;;;18.85;100.00;99422.75;4944437;28;20240;-76
2023/07/13 00:36:34;;;;;;;0.30;0.30;;;;;;;18.81;100.00;99462.19;4937164;28;20245;-77
2023/07/13 00:39:01;;;;;;;0.20;0.20;;;;;;;18.67;100.00;99477.94;4947335;28;20237;-76
2023/07/13 00:41:27;;;;;;;0.20;0.20;;;;;;;18.73;100.00;99506.28;4952498;28;20315;-77
2023/07/13 00:43:54;;;;;;;0.20;0.20;;;;;;;18.67;100.00;99531.47;4955254;28;20243;-77
2023/07/13 00:46:24;;;;;;;0.30;0.30;;;;;;;18.59;100.00;99546.94;4942958;28;20260;-77
2023/07/13 00:48:53;;;;;;;0.30;0.30;;;;;;;18.53;100.00;99580.16;4945584;28;20232;-77
2023/07/13 00:51:28;;;;;;;0.45;0.43;;;;;;;18.52;100.00;99607.00;4922844;28;20241;-77
2023/07/13 00:53:59;;;;;;;0.20;0.20;;;;;;;18.25;100.00;99616.03;4955836;28;20235;-77
2023/07/13 00:56:28;;;;;;;0.20;0.20;;;;;;;18.26;100.00;99640.06;4934444;28;20269;-77
2023/07/13 00:58:55;;;;;;;0.32;0.32;;;;;;;18.18;100.00;99648.31;4934841;28;20225;-77
2023/07/13 01:01:22;;;;;;;0.30;0.30;;;;;;;18.06;100.00;99663.91;4920591;28;20249;-77
2023/07/13 01:03:49;;;;;;;0.20;0.20;;;;;;;18.05;100.00;99688.91;4958884;28;20239;-77
2023/07/13 01:06:17;;;;;;;0.40;0.40;;;;;;;18.10;100.00;99711.06;4958206;28;20237;-77
2023/07/13 01:08:44;;;;;;;0.30;0.30;;;;;;;17.96;100.00;99714.19;4928120;28;20239;-77
2023/07/13 01:11:11;;;;;;;0.40;0.40;;;;;;;17.74;100.00;99726.50;4953057;28;20233;-77
2023/07/13 01:13:38;;;;;;;0.40;0.40;;;;;;;17.71;100.00;99750.66;4939395;28;20233;-77
2023/07/13 01:16:24;;;;;;;0.32;0.32;;;;;;;17.77;100.00;99748.66;4943895;28;20241;-77
2023/07/13 01:18:51;;;;;;;0.40;0.40;;;;;;;17.88;100.00;99780.44;4952344;28;20228;-77
2023/07/13 01:21:18;;;;;;;0.30;0.30;;;;;;;17.81;100.00;99790.44;4953201;28;20272;-77
2023/07/13 01:23:45;;;;;;;0.30;0.30;;;;;;;17.84;100.00;99824.25;4948392;28;20242;-77
2023/07/13 01:26:12;;;;;;;0.45;0.45;;;;;;;17.87;100.00;99842.88;4946008;28;20580;-77
2023/07/13 01:28:40;;;;;;;0.20;0.20;;;;;;;18.01;100.00;99859.38;4943348;28;20248;-77
2023/07/13 01:31:08;;;;;;;0.35;0.35;;;;;;;18.08;100.00;99826.16;4946085;28;20229;-77
2023/07/13 01:33:39;;;;;;;0.30;0.30;;;;;;;18.03;100.00;99806.69;4953033;28;20234;-77
2023/07/13 01:36:07;;;;;;;0.30;0.30;;;;;;;17.85;100.00;99812.63;4944039;28;20242;-76
2023/07/13 01:38:36;;;;;;;0.20;0.20;;;;;;;17.70;100.00;99830.00;4940387;28;20232;-77
2023/07/13 01:41:04;;;;;;;0.20;0.20;;;;;;;17.68;100.00;99809.56;4950880;28;20284;-83
2023/07/13 01:43:30;;;;;;;0.40;0.40;;;;;;;17.63;100.00;99825.72;4947146;28;20307;-79
2023/07/13 01:45:57;;;;;;;0.30;0.30;;;;;;;17.69;100.00;99833.59;4949376;28;20237;-80
2023/07/13 01:48:44;;;;;;;0.30;0.30;;;;;;;17.74;100.00;99833.47;4943609;28;20714;-87
2023/07/13 01:51:11;;;;;;;6.38;3.05;;;;;;;17.84;100.00;99843.84;4953584;28;20717;-82
2023/07/13 01:53:38;;;;;;;0.30;0.30;;;;;;;17.92;100.00;99840.94;4962673;28;20688;-79
2023/07/13 01:56:04;;;;;;;1.17;0.73;;;;;;;17.81;100.00;99861.78;4922047;28;20240;-84
2023/07/13 01:58:31;;;;;;;0.40;0.40;;;;;;;17.66;100.00;99854.16;4952889;28;20245;-80
2023/07/13 02:00:58;;;;;;;0.40;0.40;;;;;;;17.72;100.00;99895.00;4944491;28;20312;-79
2023/07/13 02:03:25;;;;;;;0.50;0.50;;;;;;;17.50;100.00;99875.13;4960299;28;20311;-84
2023/07/13 02:05:52;;;;;;;0.40;0.40;;;;;;;17.51;100.00;99912.50;4949823;28;20321;-79
2023/07/13 02:08:19;;;;;;;12.00;3.80;;;;;;;17.33;100.00;99909.47;4951331;28;20225;-79
2023/07/13 02:10:46;;;;;;;0.38;0.38;;;;;;;17.03;100.00;99919.16;4952123;28;20237;-80
2023/07/13 02:13:12;;;;;;;8.88;3.75;;;;;;;16.69;100.00;99940.44;4942068;28;20234;-79
2023/07/13 02:15:43;;;;;;;0.30;0.30;;;;;;;16.59;100.00;99974.44;4955385;28;20240;-79
2023/07/13 02:18:10;;;;;;;2.85;1.30;;;;;;;16.64;100.00;100001.91;4945921;28;20274;-81
2023/07/13 02:20:37;;;;;;;0.52;0.52;;;;;;;16.71;100.00;100029.38;4956872;28;20248;-79
2023/07/13 02:23:16;;;;;;;0.82;0.60;;;;;;;16.80;100.00;100032.72;4944197;28;20236;-82
2023/07/13 02:25:49;;;;;;;0.30;0.30;;;;;;;16.82;100.00;100030.03;4924456;28;20233;-80
2023/07/13 02:28:16;;;;;;;8.05;3.30;;;;;;;16.71;100.00;100048.06;4941754;28;20232;-79
2023/07/13 02:30:42;;;;;;;0.30;0.30;;;;;;;16.65;100.00;100067.78;4922329;28;20245;-79
2023/07/13 02:33:09;;;;;;;2.03;0.95;;;;;;;16.38;100.00;100074.53;4940952;28;20533;-83
2023/07/13 02:35:36;;;;;;;0.32;0.32;;;;;;;16.43;100.00;100093.13;4951212;28;20316;-80
2023/07/13 02:38:03;;;;;;;0.50;0.50;;;;;;;16.68;100.00;100089.06;4924197;28;20236;-84
2023/07/13 02:40:32;;;;;;;0.20;0.20;;;;;;;16.83;100.00;100077.19;4945815;28;20244;-79
2023/07/13 02:42:59;;;;;;;0.40;0.40;;;;;;;16.90;100.00;100108.19;4939983;28;20288;-79
2023/07/13 02:45:26;;;;;;;0.40;0.40;;;;;;;16.80;100.00;100133.31;4950483;28;20237;-78
2023/07/13 02:47:53;;;;;;;0.30;0.30;;;;;;;17.11;100.00;100125.56;4958196;28;20336;-80
2023/07/13 02:50:20;;;;;;;1.10;0.82;;;;;;;17.02;100.00;100107.94;4953264;28;20239;-80
2023/07/13 02:52:47;;;;;;;0.20;0.20;;;;;;;16.80;100.00;100128.88;4958982;28;20232;-78
2023/07/13 02:55:13;;;;;;;0.40;0.40;;;;;;;16.90;100.00;100118.84;4954962;28;20686;-78
2023/07/13 02:57:40;;;;;;;0.20;0.20;;;;;;;16.80;100.00;100126.19;4950587;28;20236;-77
2023/07/13 03:00:08;;;;;;;0.35;0.35;;;;;;;16.51;100.00;100140.09;4934090;28;20237;-78
2023/07/13 03:02:35;;;;;;;0.30;0.30;;;;;;;16.13;100.00;100129.28;4945820;28;20245;-78
2023/07/13 03:05:03;;;;;;;0.20;0.20;;;;;;;16.16;100.00;100163.91;4952392;28;20233;-78
2023/07/13 03:07:29;;;;;;;0.30;0.30;;;;;;;15.93;100.00;100177.66;4966166;23;20248;-79
2023/07/13 03:09:57;;;;;;;0.10;0.10;;;;;;;15.91;100.00;100185.69;4931388;29;20245;-79
2023/07/13 03:12:24;;;;;;;0.20;0.20;;;;;;;15.86;100.00;100205.34;4927964;29;20247;-80
2023/07/13 03:14:51;;;;;;;0.10;0.10;;;;;;;15.82;100.00;100211.63;4951485;28;20234;-80
2023/07/13 03:17:18;;;;;;;4.80;2.17;;;;;;;15.76;100.00;100247.25;4928932;28;20232;-82
2023/07/13 03:19:49;;;;;;;0.20;0.20;;;;;;;15.71;100.00;100248.22;4922377;28;20308;-81
2023/07/13 03:22:19;;;;;;;4.68;3.13;;;;;;;15.73;100.00;100252.63;4939174;28;20229;-80
2023/07/13 03:24:45;;;;;;;0.28;0.28;;;;;;;15.59;100.00;100258.13;4951601;28;20233;-80
2023/07/13 03:27:12;;;;;;;4.90;2.55;;;;;;;15.36;100.00;100269.06;4926275;28;20240;-82
2023/07/13 03:29:39;;;;;;;0.20;0.20;;;;;;;15.22;100.00;100283.47;4946131;28;20242;-82
2023/07/13 03:32:06;;;;;;;2.15;1.42;;;;;;;15.19;100.00;100287.06;4940799;29;20235;-81
2023/07/13 03:34:33;;;;;;;0.25;0.25;;;;;;;15.23;100.00;100293.22;4945680;28;20324;-82
2023/07/13 03:37:00;;;;;;;0.77;0.77;;;;;;;15.19;100.00;100313.69;4943745;28;20676;-80
2023/07/13 03:39:27;;;;;;;0.30;0.30;;;;;;;15.23;100.00;100319.88;4938400;28;20241;-80
2023/07/13 03:41:57;;;;;;;0.30;0.30;;;;;;;15.15;100.00;100338.59;4941834;28;20240;-82
2023/07/13 03:44:23;;;;;;;0.20;0.20;;;;;;;15.10;100.00;100347.53;4941587;28;20256;-81
2023/07/13 03:46:50;;;;;;;0.20;0.20;;;;;;;14.93;100.00;100353.94;4927224;28;20230;-81
2023/07/13 03:49:17;;;;;;;4.75;2.05;;;;;;;14.95;100.00;100365.44;4939243;28;20233;-80
2023/07/13 03:51:44;;;;;;;0.30;0.30;;;;;;;14.99;100.00;100382.28;4944925;28;20318;-80
2023/07/13 03:54:11;;;;;;;4.38;2.92;;;;;;;15.16;100.00;100383.00;4941803;28;20241;-82
2023/07/13 03:56:38;;;;;;;0.30;0.30;;;;;;;15.39;100.00;100390.72;4912988;29;20234;-82
2023/07/13 03:59:04;;;;;;;1.13;0.75;;;;;;;15.51;100.00;100401.25;4938475;29;20230;-82
2023/07/13 04:01:31;;;;;;;0.20;0.20;;;;;;;15.16;100.00;100408.75;4918316;28;20750;-83
2023/07/13 04:03:58;;;;;;;0.20;0.20;;;;;;;15.06;100.00;100407.94;4942176;28;20261;-80
2023/07/13 04:06:30;;;;;;;0.20;0.20;;;;;;;14.94;100.00;100424.94;4937375;28;20238;-80
2023/07/13 04:08:59;;;;;;;0.57;0.57;;;;;;;15.12;100.00;100423.88;4942357;28;20268;-80
2023/07/13 04:11:28;;;;;;;0.20;0.20;;;;;;;15.15;100.00;100426.50;4938716;28;20583;-80
2023/07/13 04:13:55;;;;;;;0.22;0.22;;;;;;;15.03;100.00;100435.50;4939265;28;20229;-80
2023/07/13 04:16:22;;;;;;;3.63;1.92;;;;;;;15.21;100.00;100450.41;4937118;28;20254;-82
2023/07/13 04:18:50;;;;;;;0.30;0.30;;;;;;;15.33;100.00;100457.41;4939419;29;20284;-79
2023/07/13 04:21:16;;;;;;;4.97;3.08;;;;;;;15.38;100.00;100435.16;4934794;28;20240;-82
2023/07/13 04:23:43;;;;;;;0.17;0.17;;;;;;;15.47;100.00;100436.81;4924438;29;20243;-83
2023/07/13 04:26:10;;;;;;;4.13;2.28;;;;;;;15.59;100.00;100439.41;4937308;28;20425;-82
2023/07/13 04:28:37;;;;;;;0.22;0.22;;;;;;;15.59;100.00;100471.38;4941386;28;20262;-83
2023/07/13 04:31:04;;;;;;;0.50;0.43;;;;;;;15.55;100.00;100488.28;4936868;28;20261;-82
2023/07/13 04:33:31;;;;;;;0.28;0.28;;;;;;;15.52;100.00;100484.75;4926317;29;20271;-80
2023/07/13 04:35:59;;;;;;;0.28;0.28;;;;;;;15.41;100.00;100466.22;4945080;29;20234;-82
2023/07/13 04:38:28;;;;;;;0.30;0.30;;;;;;;15.46;100.00;100461.72;4938439;28;20237;-82
2023/07/13 04:40:57;;;;;;;0.30;0.30;;;;;;;15.52;100.00;100452.78;4940962;29;20234;-82
2023/07/13 04:43:24;;;;;;;0.40;0.40;;;;;;;15.66;100.00;100457.13;4936554;28;20242;-82
2023/07/13 04:45:52;;;;;;;0.38;0.38;;;;;;;15.80;100.00;100442.75;4927314;28;20226;-80
2023/07/13 04:48:19;;;;;;;7.57;4.57;;;;;;;15.81;100.00;100447.16;4919213;29;20229;-81
2023/07/13 04:50:47;;;;;;;0.50;0.50;;;;;;;15.74;100.00;100470.34;4937606;28;20237;-82
2023/07/13 04:53:14;;;;;;;6.13;4.32;;;;;;;15.92;100.00;100472.81;4918942;29;20320;-82
2023/07/13 04:55:41;;;;;;;0.30;0.30;;;;;;;16.10;100.00;100501.03;4939593;28;20245;-82
2023/07/13 04:58:08;;;;;;;3.15;1.98;;;;;;;16.21;100.00;100522.25;4922273;29;20234;-80
2023/07/13 05:00:35;;;;;;;0.20;0.20;;;;;;;16.26;100.00;100539.97;4939589;28;20245;-79
2023/07/13 05:03:02;;;;;;;0.30;0.30;;;;;;;16.19;100.00;100562.28;4933300;28;20250;-77
2023/07/13 05:05:30;;;;;;;0.20;0.20;;;;;;;16.14;100.00;100564.13;4938450;28;20236;-79
2023/07/13 05:07:57;;;;;;;0.30;0.30;;;;;;;16.24;100.00;100528.44;4935632;28;20227;-78
2023/07/13 05:10:23;;;;;;;0.30;0.30;;;;;;;16.41;100.00;100511.31;4932145;28;21807;-79
2023/07/13 05:15:26;;;;;;;0.30;0.30;;;;;;;16.51;100.00;100503.16;5467056;23;20242;-77
2023/07/13 05:17:53;;;;;;;0.30;0.30;;;;;;;16.51;100.00;100515.63;4919504;29;20241;-77
2023/07/13 05:20:20;;;;;;;2.65;1.17;;;;;;;16.73;100.00;100498.41;4914031;29;20344;-77
2023/07/13 05:22:47;;;;;;;0.40;0.40;;;;;;;16.86;100.00;100497.31;4922126;29;20234;-78
2023/07/13 05:25:14;;;;;;;5.47;2.67;;;;;;;17.03;100.00;100517.56;4904588;29;20330;-77
2023/07/13 05:27:41;;;;;;;0.25;0.25;;;;;;;16.92;100.00;100515.06;4903636;29;20254;-78
2023/07/13 05:30:11;;;;;;;3.10;1.65;;;;;;;16.98;100.00;100509.63;4910851;23;20235;-77
2023/07/13 05:32:37;;;;;;;0.40;0.40;;;;;;;17.09;100.00;100496.09;4955360;28;20241;-77
2023/07/13 05:35:07;;;;;;;0.60;0.60;;;;;;;17.32;100.00;100526.00;4937024;28;20279;-77
2023/07/13 05:37:34;;;;;;;0.40;0.40;;;;;;;17.42;100.00;100499.97;4961552;28;20236;-76
2023/07/13 05:40:01;;;;;;;0.30;0.30;;;;;;;17.56;100.00;100503.28;4961502;28;20229;-78
2023/07/13 05:42:27;;;;;;;0.35;0.35;;;;;;;17.68;100.00;100505.75;4958437;28;20237;-78
2023/07/13 05:44:54;;;;;;;0.32;0.32;;;;;;;17.84;100.00;100487.63;4958653;28;20241;-77
2023/07/13 05:47:21;;;;;;;1.42;0.70;;;;;;;17.89;100.00;100473.25;4959553;28;20248;-76
2023/07/13 05:49:47;;;;;;;0.40;0.40;;;;;;;17.97;100.00;100489.13;4960535;28;20713;-76
2023/07/13 05:52:14;;;;;;;0.80;0.57;;;;;;;18.02;100.00;100491.72;4956997;28;20226;-76
2023/07/13 05:54:41;;;;;;;0.30;0.30;;;;;;;18.21;100.00;100509.19;4957849;28;20248;-76
2023/07/13 05:57:07;;;;;;;0.52;0.52;;;;;;;18.35;100.00;100488.38;4938787;28;20248;-76
2023/07/13 05:59:35;;;;;;;0.30;0.30;;;;;;;18.26;100.00;100451.09;4961034;28;20236;-78
2023/07/13 06:02:02;;;;;;;0.30;0.30;;;;;;;18.37;100.00;100474.94;4935911;28;20652;-77
2023/07/13 06:04:29;;;;;;;0.32;0.32;;;;;;;18.60;100.00;100487.81;4956105;28;20237;-76
2023/07/13 06:06:56;;;;;;;0.30;0.30;;;;;;;18.80;100.00;100459.66;4944719;28;20225;-76
2023/07/13 06:09:22;;;;;;;0.60;0.60;;;;;;;19.00;100.00;100428.81;4940773;28;20248;-76
2023/07/13 06:11:49;;;;;;;0.28;0.28;;;;;;;19.29;100.00;100406.59;4961949;28;20229;-76
2023/07/13 06:14:16;;;;;;;0.60;0.50;;;;;;;19.33;100.00;100363.56;4960567;28;20233;-76
2023/07/13 06:16:42;;;;;;;0.20;0.20;;;;;;;19.69;100.00;100366.19;4938392;28;20249;-76
2023/07/13 06:19:09;;;;;;;0.40;0.40;;;;;;;19.90;100.00;100345.88;4958168;28;20227;-76
2023/07/13 06:21:36;;;;;;;0.30;0.30;;;;;;;20.05;100.00;100268.44;4961638;28;20233;-76
2023/07/13 06:24:02;;;;;;;0.40;0.40;;;;;;;20.15;100.00;100180.41;4964580;28;20240;-76
2023/07/13 06:26:29;;;;;;;0.17;0.17;;;;;;;20.40;100.00;100186.72;4959755;28;20605;-77
2023/07/13 06:28:56;;;;;;;0.40;0.40;;;;;;;20.54;100.00;100143.25;4967518;28;20251;-78
2023/07/13 06:31:22;;;;;;;0.50;0.47;;;;;;;20.71;100.00;100131.88;4957611;28;20236;-78
2023/07/13 06:33:49;;;;;;;0.20;0.20;;;;;;;20.90;100.00;100100.72;4960541;28;20229;-78
2023/07/13 06:36:16;;;;;;;0.60;0.60;;;;;;;21.11;100.00;100082.88;4956990;28;20299;-78
2023/07/13 06:38:42;;;;;;;0.30;0.30;;;;;;;21.15;100.00;100062.97;4961742;28;20237;-77
2023/07/13 06:41:09;;;;;;;0.32;0.30;;;;;;;21.16;100.00;100040.53;4957073;28;20229;-78
2023/07/13 06:43:36;;;;;;;0.20;0.20;;;;;;;21.26;100.00;100027.63;4963878;28;20320;-77
2023/07/13 06:46:04;;;;;;;0.20;0.20;;;;;;;21.27;100.00;100010.53;4955884;28;20241;-77
2023/07/13 06:48:30;;;;;;;0.20;0.20;;;;;;;21.22;100.00;99956.94;4962957;28;20228;-78
2023/07/13 06:50:57;;;;;;;0.20;0.20;;;;;;;21.25;100.00;99951.44;4963967;28;20237;-78
2023/07/13 06:53:24;;;;;;;0.30;0.30;;;;;;;21.32;100.00;99958.31;4961726;28;20656;-77
2023/07/13 06:55:51;;;;;;;0.30;0.30;;;;;;;21.49;100.00;99962.09;4966766;28;20255;-75
2023/07/13 06:58:18;;;;;;;0.40;0.40;;;;;;;21.62;100.00;99947.16;4956882;28;20229;-76
2023/07/13 07:00:46;;;;;;;0.38;0.38;;;;;;;21.56;100.00;99896.31;4964888;28;20263;-77
2023/07/13 07:03:13;;;;;;;0.38;0.38;;;;;;;21.57;98.24;99861.25;4942008;28;20295;-75
2023/07/13 07:05:40;;;;;;;0.30;0.30;;;;;;;21.90;97.29;99868.75;4963179;28;20240;-76
2023/07/13 07:08:07;;;;;;;0.38;0.35;;;;;;;21.95;97.12;99850.56;4955827;28;20229;-76
2023/07/13 07:10:34;;;;;;;0.20;0.20;;;;;;;21.95;95.10;99818.25;4964025;28;20240;-77
2023/07/13 07:13:01;;;;;;;0.20;0.20;;;;;;;21.98;97.28;99823.47;4967741;28;20240;-76
2023/07/13 07:15:28;;;;;;;0.13;0.13;;;;;;;22.44;97.70;99873.38;4960424;28;20246;-78
2023/07/13 07:17:55;;;;;;;0.20;0.20;;;;;;;22.11;97.32;99805.00;4964833;28;20244;-77
2023/07/13 07:20:22;;;;;;;0.30;0.30;;;;;;;22.14;96.44;99794.94;4958252;28;20258;-77
2023/07/13 07:22:49;;;;;;;0.20;0.20;;;;;;;22.36;96.16;99808.22;4962507;28;20236;-76
2023/07/13 07:25:16;;;;;;;0.32;0.30;;;;;;;22.40;94.90;99793.66;4953415;28;20283;-76
2023/07/13 07:27:43;;;;;;;0.30;0.30;;;;;;;22.92;94.17;99815.31;4960945;28;20246;-76
2023/07/13 07:30:12;;;;;;;0.45;0.32;;;;;;;23.05;91.31;99780.50;4956831;28;20225;-76
2023/07/13 07:32:42;;;;;;;0.20;0.20;;;;;;;23.11;90.36;99755.91;4941896;28;20259;-78
2023/07/13 07:35:12;;;;;;;0.40;0.40;;;;;;;23.16;84.35;99681.00;4956276;28;20291;-79
2023/07/13 07:37:39;;;;;;;0.10;0.10;;;;;;;23.26;84.02;99668.75;4958070;28;20243;-78
2023/07/13 07:40:09;;;;;;;0.82;0.82;;;;;;;23.33;85.52;99677.38;4957861;28;20234;-78
2023/07/13 07:42:38;;;;;;;0.17;0.17;;;;;;;23.24;83.25;99639.16;4955875;28;20290;-77
2023/07/13 07:45:05;;;;;;;0.20;0.20;;;;;;;23.24;86.92;99651.78;4938542;28;20625;-78
2023/07/13 07:47:32;;;;;;;0.20;0.20;;;;;;;23.29;87.86;99658.66;4964069;28;20259;-78
2023/07/13 07:49:59;;;;;;;0.30;0.30;;;;;;;23.35;88.99;99672.75;4940638;28;20260;-78
2023/07/13 07:52:25;;;;;;;0.10;0.10;;;;;;;23.50;88.77;99680.91;4958084;28;20240;-78
2023/07/13 07:54:52;;;;;;;0.20;0.20;;;;;;;23.42;86.33;99622.94;4963065;28;20251;-78
2023/07/13 07:57:21;;;;;;;0.20;0.20;;;;;;;23.48;92.69;99692.75;4955337;28;22808;-77
2023/07/13 07:59:51;;;;;;;0.20;0.20;;;;;;;23.67;93.01;99708.81;4959267;28;20241;-77
2023/07/13 08:02:21;;;;;;;0.30;0.30;;;;;;;23.77;87.98;99656.91;4953994;28;20243;-79
2023/07/13 08:04:50;;;;;;;0.20;0.20;;;;;;;24.05;87.30;99671.50;4963092;28;20244;-78
2023/07/13 08:07:20;;;;;;;0.73;0.50;;;;;;;24.03;87.51;99650.00;4956592;28;20307;-77
2023/07/13 08:09:47;;;;;;;0.40;0.40;;;;;;;24.01;87.19;99624.03;4963724;28;20233;-77
2023/07/13 08:12:14;;;;;;;1.35;1.25;;;;;;;24.01;83.29;99575.44;4958707;28;20227;-77
2023/07/13 08:14:43;;;;;;;0.20;0.20;;;;;;;24.02;79.23;99506.94;4937555;28;20244;-78
2023/07/13 08:17:20;;;;;;;0.20;0.20;;;;;;;24.34;79.75;99543.69;4956255;28;20522;-80
2023/07/13 08:19:47;;;;;;;0.10;0.10;;;;;;;24.71;74.30;99514.38;4964111;28;20614;-79
2023/07/13 08:22:13;;;;;;;0.20;0.20;;;;;;;24.62;74.89;99502.28;4958044;28;20232;-80
2023/07/13 08:24:42;;;;;;;0.40;0.40;;;;;;;24.35;73.31;99415.72;4946154;28;20276;-79
2023/07/13 08:27:11;;;;;;;0.28;0.28;;;;;;;24.39;76.95;99457.81;4960077;28;20255;-79
2023/07/13 08:29:38;;;;;;;0.10;0.10;;;;;;;25.07;76.23;99525.56;4964367;28;20242;-78
2023/07/13 08:32:09;;;;;;;0.25;0.25;;;;;;;24.84;77.77;99489.16;4957021;28;20332;-80
2023/07/13 08:34:36;;;;;;;0.10;0.10;;;;;;;24.83;72.45;99425.22;4964040;28;20248;-79
2023/07/13 08:37:03;;;;;;;0.20;0.20;;;;;;;24.52;72.73;99377.69;4958130;28;20236;-80
2023/07/13 08:39:31;;;;;;;0.22;0.22;;;;;;;24.40;74.33;99356.84;4956975;28;20250;-81
2023/07/13 08:42:02;;;;;;;0.20;0.20;;;;;;;24.76;74.04;99385.19;4959757;28;20228;-81
2023/07/13 08:44:55;;;;;;;0.22;0.22;;;;;;;24.85;75.49;99404.38;4940938;28;20240;-82
2023/07/13 08:47:23;;;;;;;0.55;0.40;;;;;;;24.95;71.09;99361.34;4949701;28;20282;-79
2023/07/13 08:49:51;;;;;;;0.20;0.20;;;;;;;24.96;70.62;99346.00;4961298;28;20298;-79
2023/07/13 08:52:36;;;;;;;0.52;0.52;;;;;;;25.06;72.81;99372.34;4932108;28;20233;-78
2023/07/13 08:55:13;;;;;;;0.65;0.65;;;;;;;25.24;68.59;99343.19;4942110;28;20244;-79
2023/07/13 08:57:41;;;;;;;0.30;0.30;;;;;;;25.44;69.13;99337.25;4946591;28;20246;-79
2023/07/13 09:00:13;;;;;;;0.32;0.32;;;;;;;25.19;65.97;99261.47;4942979;28;20235;-79
2023/07/13 09:02:49;;;;;;;0.10;0.10;;;;;;;25.14;68.23;99267.19;4949657;28;20236;-79
2023/07/13 09:05:30;;;;;;;0.85;0.52;;;;;;;24.94;69.80;99254.13;4940392;28;20259;-79
2023/07/13 09:08:06;;;;;;;0.20;0.20;;;;;;;25.67;70.09;99346.50;4938920;28;20232;-78
2023/07/13 09:10:41;;;;;;;0.20;0.20;;;;;;;25.58;66.76;99292.09;4953867;28;20247;-77
2023/07/13 09:13:35;;;;;;;0.60;0.38;;;;;;;25.59;70.03;99301.97;4875750;28;20736;-80
2023/07/13 09:16:03;;;;;;;0.28;0.28;;;;;;;25.76;65.99;99277.28;4954757;28;20244;-81
2023/07/13 09:18:40;;;;;;;0.10;0.10;;;;;;;26.00;66.19;99291.78;4966469;28;20231;-79
2023/07/13 09:21:13;;;;;;;0.60;0.40;;;;;;;25.60;66.13;99220.63;4948289;28;20259;-80
2023/07/13 09:23:40;;;;;;;0.88;0.30;;;;;;;25.37;66.64;99191.66;4948204;28;20240;-79
2023/07/13 09:26:27;;;;;;;1.33;0.85;;;;;;;25.25;65.01;99139.28;4958111;28;20722;-78
2023/07/13 09:28:57;;;;;;;0.22;0.22;;;;;;;25.44;63.95;99155.91;4960289;28;20243;-79
2023/07/13 09:31:37;;;;;;;2.75;1.40;;;;;;;25.51;64.51;99172.56;4923090;28;20258;-80
2023/07/13 09:34:09;;;;;;;0.22;0.22;;;;;;;25.12;66.65;99136.56;4943314;28;20312;-79
2023/07/13 09:36:36;;;;;;;0.17;0.17;;;;;;;25.20;71.31;99215.34;4945223;28;20244;-80
2023/07/13 09:39:10;;;;;;;0.30;0.30;;;;;;;25.51;67.23;99200.50;4962530;28;20228;-80
2023/07/13 09:41:41;;;;;;;0.20;0.20;;;;;;;26.01;65.09;99230.38;4963412;28;20224;-79
2023/07/13 09:44:11;;;;;;;4.25;2.03;;;;;;;25.47;65.66;99163.81;4961002;28;20220;-79
2023/07/13 09:47:00;;;;;;;0.20;0.20;;;;;;;25.20;62.85;99077.38;4961989;28;20248;-80
2023/07/13 09:49:29;;;;;;;0.30;0.30;;;;;;;25.08;63.86;99070.16;4955137;28;20252;-79
2023/07/13 09:52:15;;;;;;;0.20;0.20;;;;;;;25.04;60.67;99008.28;4959524;28;20224;-78
2023/07/13 09:54:48;;;;;;;0.20;0.20;;;;;;;25.42;59.22;99037.91;4959679;28;20236;-79
2023/07/13 09:57:17;;;;;;;1.20;1.00;;;;;;;25.45;60.94;99053.94;4957226;28;20318;-81
2023/07/13 09:59:46;;;;;;;0.22;0.22;;;;;;;25.31;57.88;98970.19;4965929;28;20233;-79
2023/07/13 10:02:25;;;;;;;0.50;0.50;;;;;;;25.21;55.17;98894.28;4942802;28;20247;-79
2023/07/13 10:04:58;;;;;;;0.20;0.20;;;;;;;25.17;58.13;98938.75;4948545;28;20246;-80
2023/07/13 10:07:25;;;;;;;0.13;0.13;;;;;;;25.28;58.91;98959.59;4955578;28;20258;-80
2023/07/13 10:09:57;;;;;;;0.25;0.25;;;;;;;25.00;56.59;98861.59;4961077;28;20228;-80
2023/07/13 10:12:25;;;;;;;0.20;0.20;;;;;;;24.91;59.25;98899.25;4953204;28;20358;-79
2023/07/13 10:14:57;;;;;;;0.10;0.10;;;;;;;25.07;56.65;98895.31;4960118;28;20236;-80
2023/07/13 10:17:44;;;;;;;0.30;0.30;;;;;;;25.22;59.53;98955.53;4935147;28;20248;-79
2023/07/13 10:20:12;;;;;;;0.88;0.65;;;;;;;25.11;58.79;98923.00;4939149;28;20255;-80
2023/07/13 10:22:46;;;;;;;0.20;0.20;;;;;;;25.08;58.08;98909.69;4967681;28;20664;-80
2023/07/13 10:25:20;;;;;;;0.70;0.68;;;;;;;25.03;59.00;98903.78;4951113;28;20622;-79
2023/07/13 10:27:52;;;;;;;0.20;0.20;;;;;;;24.81;57.96;98851.25;4965669;28;20228;-79
2023/07/13 10:30:31;;;;;;;3.67;2.40;;;;;;;24.63;56.47;98794.97;4946497;28;20235;-79
2023/07/13 10:33:00;;;;;;;0.20;0.20;;;;;;;24.91;56.20;98834.34;4968893;28;20299;-80
2023/07/13 10:35:29;;;;;;;0.30;0.30;;;;;;;24.91;57.03;98854.13;4942394;28;20239;-79
2023/07/13 10:38:03;;;;;;;0.28;0.28;;;;;;;25.25;58.11;98916.53;4964689;28;20232;-79
2023/07/13 10:41:03;;;;;;;0.30;0.30;;;;;;;25.75;57.60;98981.28;4942222;28;20243;-80
2023/07/13 10:43:41;;;;;;;0.30;0.30;;;;;;;25.75;54.62;98904.59;4961183;28;20243;-80
2023/07/13 10:46:11;;;;;;;0.47;0.45;;;;;;;26.00;56.65;98972.13;4941849;28;20231;-80
2023/07/13 10:48:40;;;;;;;0.35;0.35;;;;;;;26.68;52.51;98974.00;4951629;28;20703;-79
2023/07/13 10:51:07;;;;;;;1.02;0.98;;;;;;;26.60;54.58;98997.28;4939696;28;20244;-79
2023/07/13 10:53:36;;;;;;;0.20;0.20;;;;;;;26.15;50.51;98826.50;4965845;28;20236;-78
2023/07/13 10:56:12;;;;;;;0.30;0.30;;;;;;;26.09;53.04;98870.34;4962360;28;20251;-78
2023/07/13 10:58:41;;;;;;;0.30;0.30;;;;;;;26.53;54.79;98961.69;4942512;28;20699;-79
2023/07/13 11:01:16;;;;;;;3.63;1.90;;;;;;;26.63;52.41;98915.72;4961194;28;20336;-78
2023/07/13 11:03:54;;;;;;;0.30;0.30;;;;;;;26.65;52.34;98908.31;4950025;28;20244;-79
2023/07/13 11:06:49;;;;;;;0.40;0.40;;;;;;;26.65;50.80;98854.94;4938601;28;20240;-80
2023/07/13 11:09:39;;;;;;;1.27;0.82;;;;;;;26.60;50.10;98815.63;4962254;28;20236;-82
2023/07/13 11:12:17;;;;;;;0.68;0.47;;;;;;;26.63;49.33;98786.41;4965989;28;20327;-79
2023/07/13 11:15:06;;;;;;;0.10;0.10;;;;;;;26.14;49.61;98716.41;4965726;28;20240;-77
2023/07/13 11:17:37;;;;;;;0.10;0.10;;;;;;;26.02;49.87;98706.56;4946245;28;20244;-78
2023/07/13 11:20:12;;;;;;;0.25;0.15;;;;;;;25.81;51.37;98718.13;4956274;28;20233;-85
2023/07/13 11:22:49;;;;;;;0.13;0.13;;;;;;;26.35;53.16;98839.34;4968533;28;20334;-79
2023/07/13 11:25:30;;;;;;;0.75;0.52;;;;;;;26.54;51.77;98837.84;4964321;28;20227;-79
2023/07/13 11:28:12;;;;;;;0.10;0.10;;;;;;;26.06;49.17;98703.50;4966583;28;20243;-77
2023/07/13 11:30:40;;;;;;;0.30;0.30;;;;;;;26.21;48.92;98706.78;4937866;28;20620;-79
2023/07/13 11:33:22;;;;;;;0.30;0.25;;;;;;;26.19;48.84;98710.63;4941802;28;20236;-79
2023/07/13 11:36:03;;;;;;;6.25;3.13;;;;;;;25.91;50.40;98679.47;4973939;23;20623;-78
2023/07/13 11:38:41;;;;;;;0.20;0.20;;;;;;;26.72;49.86;98804.63;4934293;28;20253;-78